createdAt,value
2019-01-11T00:00:19.599Z,17.53
2019-01-11T00:02:47.170Z,17.67
2019-01-11T00:05:15.741Z,16.37
2019-01-11T00:07:43.284Z,18.20
2019-01-11T00:10:10.857Z,18.07
2019-01-11T00:12:38.434Z,14.87
2019-01-11T00:15:06.019Z,12.80
2019-01-11T00:17:33.688Z,11.37
2019-01-11T00:20:03.733Z,12.40
2019-01-11T00:22:29.810Z,11.27
2019-01-11T00:24:57.355Z,12.10
2019-01-11T00:27:25.693Z,12.90
2019-01-11T00:29:53.239Z,13.37
2019-01-11T00:32:20.820Z,9.60
2019-01-11T00:34:48.367Z,7.03
2019-01-11T00:37:15.932Z,4.90
2019-01-11T00:39:43.476Z,5.47
2019-01-11T00:42:11.035Z,7.10
2019-01-11T00:44:38.582Z,8.27
2019-01-11T00:47:07.169Z,8.93
2019-01-11T00:49:35.022Z,9.50
2019-01-11T00:52:02.607Z,9.27
2019-01-11T00:54:30.183Z,6.60
2019-01-11T00:56:57.723Z,5.40
2019-01-11T00:59:25.287Z,5.50
2019-01-11T01:01:52.856Z,4.40
2019-01-11T01:04:20.431Z,4.50
2019-01-11T01:06:47.968Z,4.10
2019-01-11T01:09:15.536Z,4.20
2019-01-11T01:11:43.844Z,5.37
2019-01-11T01:14:11.402Z,4.57
2019-01-11T01:16:39.087Z,4.37
2019-01-11T01:19:06.651Z,4.00
2019-01-11T01:21:34.185Z,3.40
2019-01-11T01:24:02.036Z,3.63
2019-01-11T01:26:29.618Z,4.07
2019-01-11T01:28:58.172Z,3.47
2019-01-11T01:31:25.720Z,3.90
2019-01-11T01:33:53.292Z,4.00
2019-01-11T01:36:20.832Z,3.60
2019-01-11T01:38:48.399Z,3.10
2019-01-11T01:41:15.940Z,3.50
2019-01-11T01:43:43.503Z,3.20
2019-01-11T01:46:11.039Z,3.40
2019-01-11T01:48:38.581Z,4.17
2019-01-11T01:51:06.157Z,3.50
2019-01-11T01:53:33.692Z,4.17
2019-01-11T01:56:02.207Z,4.40
2019-01-11T01:58:29.752Z,4.17
2019-01-11T02:00:57.330Z,3.77
2019-01-11T02:03:24.876Z,5.00
2019-01-11T02:05:52.441Z,6.60
2019-01-11T02:08:19.992Z,5.87
2019-01-11T02:10:49.297Z,8.60
2019-01-11T02:13:16.867Z,5.93
2019-01-11T02:15:44.418Z,6.40
2019-01-11T02:18:11.987Z,11.67
2019-01-11T02:20:40.991Z,6.97
2019-01-11T02:23:09.568Z,7.40
2019-01-11T02:25:37.130Z,4.53
2019-01-11T02:28:04.674Z,4.47
2019-01-11T02:30:32.240Z,4.40
2019-01-11T02:32:59.779Z,5.33
2019-01-11T02:35:27.359Z,4.30
2019-01-11T02:37:55.019Z,3.30
2019-01-11T02:40:22.599Z,3.50
2019-01-11T02:42:50.164Z,3.90
2019-01-11T02:45:17.709Z,4.73
2019-01-11T02:47:45.245Z,3.73
2019-01-11T02:50:12.815Z,4.07
2019-01-11T02:52:40.361Z,4.10
2019-01-11T02:55:07.901Z,4.07
2019-01-11T02:57:35.476Z,4.00
2019-01-11T03:00:03.078Z,4.30
2019-01-11T03:02:30.632Z,3.23
2019-01-11T03:04:58.195Z,3.90
2019-01-11T03:07:25.732Z,4.20
2019-01-11T03:09:53.291Z,4.13
2019-01-11T03:12:20.853Z,4.20
2019-01-11T03:14:48.415Z,4.20
2019-01-11T03:17:15.955Z,4.10
2019-01-11T03:19:47.800Z,4.37
2019-01-11T03:22:11.148Z,3.70
2019-01-11T03:24:38.728Z,3.60
2019-01-11T03:27:06.279Z,3.93
2019-01-11T03:29:34.716Z,4.13
2019-01-11T03:32:01.440Z,3.73
2019-01-11T03:34:29.751Z,3.90
2019-01-11T03:36:57.323Z,3.60
2019-01-11T03:39:24.860Z,3.80
2019-01-11T03:41:52.434Z,3.70
2019-01-11T03:44:19.973Z,4.10
2019-01-11T03:46:47.541Z,4.23
2019-01-11T03:49:15.085Z,4.17
2019-01-11T03:51:42.620Z,4.50
2019-01-11T03:54:10.947Z,3.73
2019-01-11T03:56:38.517Z,4.57
2019-01-11T03:59:06.095Z,4.00
2019-01-11T04:01:33.637Z,4.40
2019-01-11T04:04:01.985Z,4.40
2019-01-11T04:06:28.795Z,4.03
2019-01-11T04:08:56.359Z,3.70
2019-01-11T04:11:23.904Z,4.20
2019-01-11T04:13:51.452Z,4.60
2019-01-11T04:16:19.020Z,5.93
2019-01-11T04:18:49.986Z,6.10
2019-01-11T04:21:17.533Z,6.10
2019-01-11T04:23:45.109Z,4.70
2019-01-11T04:26:12.678Z,4.77
2019-01-11T04:28:40.256Z,4.83
2019-01-11T04:31:07.826Z,4.23
2019-01-11T04:33:35.401Z,4.40
2019-01-11T04:36:02.944Z,4.00
2019-01-11T04:38:31.280Z,4.43
2019-01-11T04:40:58.822Z,4.10
2019-01-11T04:43:26.399Z,3.63
2019-01-11T04:45:53.937Z,3.93
2019-01-11T04:48:21.508Z,3.90
2019-01-11T04:50:49.149Z,4.43
2019-01-11T04:53:16.724Z,4.93
2019-01-11T04:55:44.268Z,4.57
2019-01-11T04:58:11.844Z,4.50
2019-01-11T05:00:39.417Z,4.67
2019-01-11T05:03:06.990Z,5.10
2019-01-11T05:05:34.531Z,4.97
2019-01-11T05:08:02.131Z,5.20
2019-01-11T05:10:29.680Z,4.80
2019-01-11T05:12:57.265Z,4.70
2019-01-11T05:15:24.820Z,5.03
2019-01-11T05:17:53.348Z,4.47
2019-01-11T05:20:20.905Z,5.40
2019-01-11T05:22:48.450Z,5.77
2019-01-11T05:25:16.024Z,5.60
2019-01-11T05:27:43.577Z,5.83
2019-01-11T05:30:12.109Z,5.30
2019-01-11T05:32:39.652Z,5.70
2019-01-11T05:35:07.191Z,6.07
2019-01-11T05:37:35.745Z,6.07
2019-01-11T05:40:03.291Z,6.67
2019-01-11T05:42:30.866Z,7.20
2019-01-11T05:44:59.419Z,6.53
2019-01-11T05:47:26.962Z,6.90
2019-01-11T05:49:54.545Z,12.53
2019-01-11T05:52:22.096Z,8.50
2019-01-11T05:54:49.753Z,8.60
2019-01-11T05:57:17.294Z,5.85
2019-01-11T05:59:44.864Z,6.90
2019-01-11T06:02:12.419Z,7.10
2019-01-11T06:04:40.877Z,6.80
2019-01-11T06:07:08.431Z,7.50
2019-01-11T06:09:36.020Z,7.40
2019-01-11T06:12:03.577Z,11.00
2019-01-11T06:14:31.250Z,9.37
2019-01-11T06:16:58.791Z,8.70
2019-01-11T06:19:26.341Z,7.60
2019-01-11T06:21:54.003Z,9.80
2019-01-11T06:24:21.551Z,9.80
2019-01-11T06:26:49.124Z,9.40
2019-01-11T06:29:16.672Z,10.90
2019-01-11T06:31:44.254Z,14.97
2019-01-11T06:34:11.796Z,16.10
2019-01-11T06:36:39.376Z,17.70
2019-01-11T06:39:06.936Z,15.00
2019-01-11T06:41:34.489Z,7.77
2019-01-11T06:44:02.072Z,7.23
2019-01-11T06:46:29.649Z,6.67
2019-01-11T06:48:58.198Z,5.37
2019-01-11T06:51:25.741Z,5.40
2019-01-11T06:53:53.312Z,5.47
2019-01-11T06:56:20.885Z,6.83
2019-01-11T06:58:48.472Z,6.73
2019-01-11T07:01:16.017Z,5.40
2019-01-11T07:03:43.788Z,5.90
2019-01-11T07:06:11.356Z,5.87
2019-01-11T07:08:38.904Z,5.47
2019-01-11T07:11:06.489Z,5.70
2019-01-11T07:13:34.066Z,5.53
2019-01-11T07:16:01.603Z,5.73
2019-01-11T07:18:29.185Z,6.20
2019-01-11T07:20:56.733Z,5.60
2019-01-11T07:23:24.304Z,5.03
2019-01-11T07:25:51.863Z,5.23
2019-01-11T07:28:19.459Z,10.37
2019-01-11T07:33:45.268Z,4.40
2019-01-11T07:36:27.646Z,6.30
2019-01-11T07:38:55.188Z,5.17
2019-01-11T07:41:22.754Z,4.90
2019-01-11T07:43:50.332Z,5.47
2019-01-11T07:46:17.891Z,5.93
2019-01-11T07:48:46.469Z,7.03
2019-01-11T07:51:14.015Z,6.50
2019-01-11T07:53:41.764Z,6.57
2019-01-11T07:56:10.630Z,6.20
2019-01-11T07:58:38.213Z,6.73
2019-01-11T08:01:05.762Z,6.87
2019-01-11T08:03:33.340Z,7.13
2019-01-11T08:06:00.884Z,7.87
2019-01-11T08:08:28.458Z,7.13
2019-01-11T08:10:55.998Z,8.63
2019-01-11T08:13:23.577Z,7.60
2019-01-11T08:15:51.301Z,10.93
2019-01-11T08:18:18.849Z,9.80
2019-01-11T08:20:46.522Z,8.07
2019-01-11T08:23:14.287Z,7.90
2019-01-11T08:25:41.858Z,9.03
2019-01-11T08:28:09.445Z,9.03
2019-01-11T08:30:38.012Z,9.10
2019-01-11T08:33:05.950Z,9.03
2019-01-11T08:35:33.530Z,9.07
2019-01-11T08:38:01.104Z,8.70
2019-01-11T08:40:28.667Z,9.15
2019-01-11T08:42:56.254Z,9.60
2019-01-11T08:45:23.848Z,8.43
2019-01-11T08:47:51.430Z,7.70
2019-01-11T08:50:19.747Z,10.17
2019-01-11T08:52:47.295Z,9.43
2019-01-11T08:55:14.870Z,8.30
2019-01-11T08:57:42.452Z,9.13
2019-01-11T09:00:10.781Z,9.17
2019-01-11T09:02:38.340Z,9.67
2019-01-11T09:05:05.904Z,11.13
2019-01-11T09:07:34.255Z,9.67
2019-01-11T09:10:01.800Z,8.60
2019-01-11T09:12:29.369Z,9.27
2019-01-11T09:14:56.919Z,8.23
2019-01-11T09:17:24.493Z,8.93
2019-01-11T09:19:52.047Z,8.57
2019-01-11T09:22:19.629Z,9.30
2019-01-11T09:24:47.182Z,9.13
2019-01-11T09:27:14.759Z,11.40
2019-01-11T09:29:42.336Z,8.40
2019-01-11T09:32:09.880Z,9.80
2019-01-11T09:34:37.473Z,11.03
2019-01-11T09:37:05.040Z,10.67
2019-01-11T09:39:32.581Z,8.90
2019-01-11T09:42:00.159Z,13.50
2019-01-11T09:44:27.705Z,8.90
2019-01-11T09:46:55.285Z,8.53
2019-01-11T09:49:22.833Z,9.40
2019-01-11T09:51:50.409Z,9.20
2019-01-11T09:54:17.961Z,8.83
2019-01-11T09:56:45.504Z,9.33
2019-01-11T09:59:13.091Z,10.27
2019-01-11T10:01:40.638Z,9.23
2019-01-11T10:04:08.210Z,9.70
2019-01-11T10:06:35.756Z,9.13
2019-01-11T10:09:03.340Z,8.70
2019-01-11T10:11:30.880Z,7.60
2019-01-11T10:13:58.429Z,8.00
2019-01-11T10:16:26.970Z,9.20
2019-01-11T10:18:54.519Z,9.83
2019-01-11T10:21:23.936Z,10.10
2019-01-11T10:23:49.697Z,9.33
2019-01-11T10:26:17.278Z,11.17
2019-01-11T10:28:44.826Z,9.90
2019-01-11T10:31:12.385Z,10.17
2019-01-11T10:33:39.955Z,12.37
2019-01-11T10:36:08.490Z,11.83
2019-01-11T10:38:36.828Z,11.30
2019-01-11T10:41:04.377Z,11.77
2019-01-11T10:43:31.948Z,13.10
2019-01-11T10:45:59.521Z,12.77
2019-01-11T10:48:27.092Z,11.73
2019-01-11T10:50:54.640Z,11.83
2019-01-11T10:53:22.212Z,11.30
2019-01-11T10:55:51.537Z,11.70
2019-01-11T10:58:19.085Z,11.93
2019-01-11T11:00:46.653Z,10.80
2019-01-11T11:03:14.201Z,18.60
2019-01-11T11:05:42.548Z,11.10
2019-01-11T11:08:10.865Z,10.67
2019-01-11T11:10:38.412Z,11.60
2019-01-11T11:15:39.904Z,11.20
2019-01-11T11:18:07.480Z,11.23
2019-01-11T11:20:35.033Z,10.57
2019-01-11T11:23:03.372Z,11.10
2019-01-11T11:25:30.947Z,7.53
2019-01-11T11:27:58.519Z,6.80
2019-01-11T11:30:26.064Z,6.27
2019-01-11T11:32:55.544Z,7.80
2019-01-11T11:35:23.111Z,8.87
2019-01-11T11:37:50.655Z,7.60
2019-01-11T11:40:18.232Z,7.23
2019-01-11T11:42:45.781Z,7.63
2019-01-11T11:45:13.361Z,9.20
2019-01-11T11:47:40.914Z,8.70
2019-01-11T11:50:08.477Z,7.37
2019-01-11T11:52:36.045Z,8.10
2019-01-11T11:55:03.593Z,9.93
2019-01-11T11:57:31.159Z,8.23
2019-01-11T11:59:58.708Z,9.03
2019-01-11T12:02:26.288Z,8.77
2019-01-11T12:04:53.832Z,9.27
2019-01-11T12:07:21.420Z,8.00
2019-01-11T12:09:48.969Z,8.33
2019-01-11T12:12:17.279Z,8.20
2019-01-11T12:14:44.853Z,8.73
2019-01-11T12:17:13.412Z,12.50
2019-01-11T12:19:40.994Z,12.40
2019-01-11T12:22:08.634Z,11.40
2019-01-11T12:24:36.208Z,9.37
2019-01-11T12:27:03.781Z,10.43
2019-01-11T12:29:31.365Z,11.50
2019-01-11T12:31:58.912Z,11.50
2019-01-11T12:34:27.221Z,16.70
2019-01-11T12:36:55.562Z,12.17
2019-01-11T12:39:23.150Z,10.87
2019-01-11T12:41:52.637Z,11.67
2019-01-11T12:44:20.980Z,11.10
2019-01-11T12:46:48.524Z,11.23
2019-01-11T12:49:16.107Z,11.60
2019-01-11T12:51:43.676Z,11.73
2019-01-11T12:54:11.253Z,12.40
2019-01-11T12:56:38.802Z,10.47
2019-01-11T12:59:07.387Z,10.80
2019-01-11T13:01:34.963Z,10.97
2019-01-11T13:04:03.532Z,13.83
2019-01-11T13:06:31.077Z,11.97
2019-01-11T13:08:58.661Z,15.83
2019-01-11T13:11:26.203Z,11.60
2019-01-11T13:13:53.781Z,14.37
2019-01-11T13:16:21.332Z,13.80
2019-01-11T13:18:48.969Z,12.80
2019-01-11T13:21:16.529Z,13.37
2019-01-11T13:23:44.848Z,12.90
2019-01-11T13:26:12.421Z,13.10
2019-01-11T13:28:39.965Z,12.80
2019-01-11T13:31:07.545Z,14.67
2019-01-11T13:33:35.121Z,13.80
2019-01-11T13:36:02.669Z,12.57
2019-01-11T13:38:30.240Z,13.93
2019-01-11T13:40:57.812Z,15.17
2019-01-11T13:43:25.360Z,14.90
2019-01-11T13:45:52.961Z,13.50
2019-01-11T13:48:20.619Z,13.23
2019-01-11T13:50:48.160Z,15.10
2019-01-11T13:53:15.735Z,14.33
2019-01-11T13:55:43.307Z,13.87
2019-01-11T13:58:11.885Z,13.60
2019-01-11T14:00:39.429Z,13.40
2019-01-11T14:03:06.981Z,12.97
2019-01-11T14:05:34.564Z,13.27
2019-01-11T14:08:02.215Z,14.27
2019-01-11T14:10:29.809Z,14.00
2019-01-11T14:12:57.402Z,13.87
2019-01-11T14:15:24.950Z,14.80
2019-01-11T14:17:52.564Z,14.50
2019-01-11T14:20:20.145Z,14.50
2019-01-11T14:22:47.721Z,14.87
2019-01-11T14:25:15.276Z,17.37
2019-01-11T14:27:43.622Z,15.20
2019-01-11T14:30:14.060Z,14.70
2019-01-11T14:32:41.633Z,14.87
2019-01-11T14:35:09.957Z,13.43
2019-01-11T14:37:37.532Z,15.77
2019-01-11T14:40:05.082Z,14.60
2019-01-11T14:42:32.628Z,15.83
2019-01-11T14:45:00.202Z,15.07
2019-01-11T14:47:27.832Z,15.50
2019-01-11T14:49:55.403Z,16.53
2019-01-11T14:52:22.958Z,18.10
2019-01-11T14:54:50.529Z,22.10
2019-01-11T14:57:18.107Z,20.50
2019-01-11T14:59:45.688Z,24.77
2019-01-11T15:02:13.229Z,19.10
2019-01-11T15:04:40.804Z,18.30
2019-01-11T15:07:08.378Z,19.40
2019-01-11T15:09:35.952Z,20.03
2019-01-11T15:12:03.498Z,19.67
2019-01-11T15:14:31.084Z,20.77
2019-01-11T15:16:58.666Z,19.67
2019-01-11T15:19:26.245Z,18.47
2019-01-11T15:21:53.824Z,20.03
2019-01-11T15:24:21.369Z,19.27
2019-01-11T15:26:48.964Z,24.30
2019-01-11T15:29:16.514Z,20.27
2019-01-11T15:31:45.075Z,20.40
2019-01-11T15:34:12.660Z,24.37
2019-01-11T15:36:40.213Z,107.87
2019-01-11T15:39:07.788Z,26.90
2019-01-11T15:41:35.528Z,21.60
2019-01-11T15:44:03.105Z,23.70
2019-01-11T15:46:32.237Z,24.47
2019-01-11T15:48:59.809Z,21.30
2019-01-11T15:51:28.240Z,25.43
2019-01-11T15:53:55.780Z,23.70
2019-01-11T15:56:23.329Z,28.23
2019-01-11T15:58:50.904Z,24.00
2019-01-11T16:01:18.443Z,24.07
2019-01-11T16:03:46.022Z,24.10
2019-01-11T16:06:15.306Z,35.57
2019-01-11T16:11:45.661Z,24.15
2019-01-11T16:14:31.712Z,33.20
2019-01-11T16:16:59.297Z,23.33
2019-01-11T16:19:26.868Z,27.17
2019-01-11T16:21:54.561Z,22.57
2019-01-11T16:24:23.113Z,23.80
2019-01-11T16:26:50.665Z,22.47
2019-01-11T16:29:18.239Z,22.53
2019-01-11T16:31:45.822Z,25.10
2019-01-11T16:34:14.160Z,30.57
2019-01-11T16:36:41.719Z,24.30
2019-01-11T16:39:09.264Z,24.20
2019-01-11T16:41:36.837Z,25.17
2019-01-11T16:44:04.392Z,24.23
2019-01-11T16:46:32.950Z,22.40
2019-01-11T16:49:00.520Z,23.60
2019-01-11T16:51:28.068Z,24.10
2019-01-11T16:53:55.642Z,20.60
2019-01-11T16:56:23.794Z,23.17
2019-01-11T16:58:50.840Z,26.13
2019-01-11T17:01:18.382Z,22.47
2019-01-11T17:03:46.098Z,23.27
2019-01-11T17:06:13.676Z,23.57
2019-01-11T17:08:41.250Z,31.60
2019-01-11T17:11:08.844Z,28.37
2019-01-11T17:13:40.501Z,30.33
2019-01-11T17:16:04.029Z,28.80
2019-01-11T17:18:31.572Z,25.87
2019-01-11T17:20:59.115Z,31.93
2019-01-11T17:23:26.693Z,26.90
2019-01-11T17:25:55.028Z,27.73
2019-01-11T17:28:22.604Z,20.60
2019-01-11T17:30:50.151Z,24.63
2019-01-11T17:33:17.725Z,22.57
2019-01-11T17:35:46.073Z,24.70
2019-01-11T17:38:13.655Z,25.60
2019-01-11T17:40:41.214Z,28.90
2019-01-11T17:43:08.780Z,28.53
2019-01-11T17:45:37.121Z,26.93
2019-01-11T17:48:04.682Z,23.07
2019-01-11T17:50:32.257Z,18.63
2019-01-11T17:53:00.254Z,17.07
2019-01-11T17:55:27.440Z,20.27
2019-01-11T17:57:54.984Z,19.33
2019-01-11T18:00:22.563Z,21.33
2019-01-11T18:02:50.140Z,21.43
2019-01-11T18:05:17.712Z,18.33
2019-01-11T18:07:46.053Z,18.67
2019-01-11T18:10:14.052Z,22.43
2019-01-11T18:12:41.224Z,23.37
2019-01-11T18:15:08.781Z,20.33
2019-01-11T18:17:36.372Z,19.90
2019-01-11T18:20:03.938Z,20.60
2019-01-11T18:22:31.516Z,17.80
2019-01-11T18:24:59.074Z,20.90
2019-01-11T18:27:26.654Z,20.57
2019-01-11T18:29:55.000Z,20.77
2019-01-11T18:32:22.549Z,23.90
2019-01-11T18:34:51.120Z,25.60
2019-01-11T18:37:19.857Z,21.50
2019-01-11T18:39:46.325Z,25.70
2019-01-11T18:42:13.879Z,27.03
2019-01-11T18:44:41.458Z,23.83
2019-01-11T18:47:09.012Z,24.90
2019-01-11T18:49:36.586Z,29.93
2019-01-11T18:52:04.156Z,23.60
2019-01-11T18:54:31.728Z,22.37
2019-01-11T18:57:00.047Z,23.67
2019-01-11T18:59:27.627Z,21.60
2019-01-11T19:01:55.196Z,21.27
2019-01-11T19:04:22.822Z,19.47
2019-01-11T19:06:50.373Z,18.37
2019-01-11T19:09:17.944Z,18.10
2019-01-11T19:11:45.500Z,16.93
2019-01-11T19:14:13.162Z,17.83
2019-01-11T19:16:40.716Z,18.63
2019-01-11T19:19:08.288Z,21.27
2019-01-11T19:21:35.855Z,25.00
2019-01-11T19:24:03.416Z,24.87
2019-01-11T19:26:31.014Z,22.77
2019-01-11T19:28:58.574Z,19.10
2019-01-11T19:31:26.168Z,18.73
2019-01-11T19:33:53.753Z,20.60
2019-01-11T19:36:21.299Z,28.00
2019-01-11T19:38:48.881Z,24.70
2019-01-11T19:41:16.429Z,20.03
2019-01-11T19:43:44.033Z,20.30
2019-01-11T19:46:11.582Z,18.60
2019-01-11T19:48:39.159Z,18.97
2019-01-11T19:51:06.724Z,19.60
2019-01-11T19:53:34.301Z,20.43
2019-01-11T19:56:01.857Z,19.07
2019-01-11T19:58:29.448Z,18.83
2019-01-11T20:00:57.079Z,19.73
2019-01-11T20:03:24.637Z,17.70
2019-01-11T20:05:52.213Z,18.40
2019-01-11T20:08:20.532Z,18.93
2019-01-11T20:10:48.105Z,18.33
2019-01-11T20:13:15.689Z,17.20
2019-01-11T20:15:44.302Z,14.07
2019-01-11T20:18:11.853Z,12.80
2019-01-11T20:20:39.432Z,16.43
2019-01-11T20:23:06.981Z,17.57
2019-01-11T20:25:34.560Z,19.80
2019-01-11T20:28:02.105Z,20.37
2019-01-11T20:30:29.661Z,23.20
2019-01-11T20:32:58.224Z,22.90
2019-01-11T20:35:26.573Z,22.27
2019-01-11T20:37:54.180Z,30.70
2019-01-11T20:40:21.762Z,32.77
2019-01-11T20:42:49.327Z,22.50
2019-01-11T20:45:16.937Z,24.57
2019-01-11T20:47:44.486Z,24.57
2019-01-11T20:50:13.955Z,25.40
2019-01-11T20:52:41.496Z,22.07
2019-01-11T20:55:09.073Z,23.90
2019-01-11T20:57:36.657Z,23.33
2019-01-11T21:00:04.899Z,85.20
2019-01-11T21:02:32.459Z,62.30
2019-01-11T21:05:00.041Z,35.67
2019-01-11T21:07:27.611Z,63.50
2019-01-11T21:09:55.165Z,99.97
2019-01-11T21:12:22.745Z,26.30
2019-01-11T21:14:50.293Z,23.83
2019-01-11T21:17:17.881Z,59.60
2019-01-11T21:19:45.433Z,61.90
2019-01-11T21:22:13.010Z,58.03
2019-01-11T21:24:40.556Z,39.73
2019-01-11T21:27:08.173Z,31.80
2019-01-11T21:29:35.716Z,33.83
2019-01-11T21:32:03.264Z,24.90
2019-01-11T21:34:32.633Z,23.10
2019-01-11T21:37:00.214Z,20.53
2019-01-11T21:39:27.804Z,17.10
2019-01-11T21:41:56.122Z,20.43
2019-01-11T21:44:23.711Z,22.90
2019-01-11T21:46:51.283Z,23.90
2019-01-11T21:49:18.865Z,31.70
2019-01-11T21:51:46.411Z,27.40
2019-01-11T21:54:13.975Z,23.70
2019-01-11T21:56:41.553Z,23.53
2019-01-11T21:59:09.118Z,26.60
2019-01-11T22:01:36.683Z,24.73
2019-01-11T22:04:04.235Z,26.17
2019-01-11T22:06:31.820Z,27.73
2019-01-11T22:08:59.373Z,26.20
2019-01-11T22:11:26.945Z,27.03
2019-01-11T22:13:54.496Z,28.03
2019-01-11T22:16:22.073Z,28.12
2019-01-11T22:18:50.390Z,27.00
2019-01-11T22:21:17.936Z,28.00
2019-01-11T22:23:45.510Z,28.70
2019-01-11T22:26:13.061Z,27.50
2019-01-11T22:28:40.637Z,26.00
2019-01-11T22:31:16.745Z,26.97
2019-01-11T22:33:44.322Z,26.10
2019-01-11T22:36:11.862Z,25.43
2019-01-11T22:38:40.207Z,25.60
2019-01-11T22:41:07.777Z,25.93
2019-01-11T22:43:35.347Z,25.40
2019-01-11T22:46:02.904Z,26.63
2019-01-11T22:48:31.261Z,25.70
2019-01-11T22:50:58.840Z,28.67
2019-01-11T22:53:26.412Z,30.00
2019-01-11T22:55:53.956Z,28.83
2019-01-11T22:58:22.288Z,28.17
2019-01-11T23:00:51.327Z,27.50
2019-01-11T23:03:20.602Z,29.90
2019-01-11T23:05:48.157Z,29.60
2019-01-11T23:08:16.724Z,29.60
2019-01-11T23:13:43.571Z,33.40
2019-01-11T23:16:11.109Z,33.23
2019-01-11T23:18:38.756Z,33.47
2019-01-11T23:21:06.330Z,33.90
2019-01-11T23:23:33.876Z,32.67
2019-01-11T23:26:01.464Z,32.47
2019-01-11T23:28:29.045Z,31.20
2019-01-11T23:30:56.600Z,31.80
2019-01-11T23:33:24.184Z,31.20
2019-01-11T23:35:52.526Z,30.93
2019-01-11T23:38:20.110Z,33.20
2019-01-11T23:40:47.658Z,32.10
2019-01-11T23:43:15.205Z,32.00
2019-01-11T23:45:42.784Z,29.85
2019-01-11T23:48:10.332Z,30.00
2019-01-11T23:50:37.904Z,31.07
2019-01-11T23:53:06.261Z,31.40
2019-01-11T23:55:33.800Z,30.17
2019-01-11T23:58:01.374Z,30.60
